sensor_id;sensor_type;location;lat;lon;timestamp;pressure;altitude;pressure_sealevel;temperature;humidity
14120;BME280;7138;49.246;9.100;2022-10-19T00:00:05;99729.38;;;16.73;100.00
14120;BME280;7138;49.246;9.100;2022-10-19T00:02:35;99722.44;;;16.69;100.00
14120;BME280;7138;49.246;9.100;2022-10-19T00:05:02;99724.16;;;16.73;100.00
14120;BME280;7138;49.246;9.100;2022-10-19T00:07:28;99722.41;;;16.72;100.00
14120;BME280;7138;49.246;9.100;2022-10-19T00:09:54;99725.03;;;16.74;100.00
14120;BME280;7138;49.246;9.100;2022-10-19T00:12:20;99730.25;;;16.74;100.00
14120;BME280;7138;49.246;9.100;2022-10-19T00:14:45;99732.00;;;16.72;100.00
14120;BME280;7138;49.246;9.100;2022-10-19T00:17:11;99738.13;;;16.68;100.00
14120;BME280;7138;49.246;9.100;2022-10-19T00:19:37;99738.19;;;16.62;100.00
14120;BME280;7138;49.246;9.100;2022-10-19T00:22:04;99735.59;;;16.59;100.00
14120;BME280;7138;49.246;9.100;2022-10-19T00:24:30;99726.91;;;16.57;100.00
14120;BME280;7138;49.246;9.100;2022-10-19T00:26:56;99731.28;;;16.55;100.00
14120;BME280;7138;49.246;9.100;2022-10-19T00:29:22;99732.13;;;16.52;100.00
14120;BME280;7138;49.246;9.100;2022-10-19T00:31:48;99730.41;;;16.50;100.00
14120;BME280;7138;49.246;9.100;2022-10-19T00:34:15;99731.28;;;16.49;100.00
14120;BME280;7138;49.246;9.100;2022-10-19T00:36:41;99731.31;;;16.46;100.00
14120;BME280;7138;49.246;9.100;2022-10-19T00:39:13;99732.19;;;16.46;100.00
14120;BME280;7138;49.246;9.100;2022-10-19T00:41:40;99726.09;;;16.46;100.00
14120;BME280;7138;49.246;9.100;2022-10-19T00:47:11;99727.91;;;16.36;100.00
14120;BME280;7138;49.246;9.100;2022-10-19T00:49:41;99719.25;;;16.31;100.00
14120;BME280;7138;49.246;9.100;2022-10-19T00:52:13;99725.28;;;16.37;100.00
14120;BME280;7138;49.246;9.100;2022-10-19T00:54:44;99717.47;;;16.36;100.00
14120;BME280;7138;49.246;9.100;2022-10-19T00:57:12;99721.81;;;16.37;100.00
14120;BME280;7138;49.246;9.100;2022-10-19T00:59:40;99694.94;;;16.26;100.00
14120;BME280;7138;49.246;9.100;2022-10-19T01:02:07;99721.75;;;16.41;100.00
14120;BME280;7138;49.246;9.100;2022-10-19T01:04:37;99721.75;;;16.45;100.00
14120;BME280;7138;49.246;9.100;2022-10-19T01:07:06;99718.25;;;16.46;100.00
14120;BME280;7138;49.246;9.100;2022-10-19T01:09:33;99717.38;;;16.50;100.00
14120;BME280;7138;49.246;9.100;2022-10-19T01:12:11;99718.22;;;16.49;100.00
14120;BME280;7138;49.246;9.100;2022-10-19T01:14:58;99719.13;;;16.45;100.00
14120;BME280;7138;49.246;9.100;2022-10-19T01:17:37;99717.44;;;16.40;100.00
14120;BME280;7138;49.246;9.100;2022-10-19T01:20:32;99715.78;;;16.29;100.00
14120;BME280;7138;49.246;9.100;2022-10-19T01:23:28;99714.94;;;16.25;100.00
14120;BME280;7138;49.246;9.100;2022-10-19T01:26:13;99709.78;;;16.19;100.00
14120;BME280;7138;49.246;9.100;2022-10-19T01:28:58;99705.44;;;16.15;100.00
14120;BME280;7138;49.246;9.100;2022-10-19T01:31:38;99702.81;;;16.15;100.00
14120;BME280;7138;49.246;9.100;2022-10-19T01:34:13;99706.34;;;16.10;100.00
14120;BME280;7138;49.246;9.100;2022-10-19T01:36:49;99702.81;;;16.18;100.00
14120;BME280;7138;49.246;9.100;2022-10-19T01:39:35;99713.25;;;16.18;100.00
14120;BME280;7138;49.246;9.100;2022-10-19T01:42:11;99700.22;;;16.17;100.00
14120;BME280;7138;49.246;9.100;2022-10-19T01:44:45;99701.06;;;16.17;100.00
14120;BME280;7138;49.246;9.100;2022-10-19T01:47:21;99695.84;;;16.17;100.00
14120;BME280;7138;49.246;9.100;2022-10-19T01:49:57;99693.22;;;16.17;100.00
14120;BME280;7138;49.246;9.100;2022-10-19T01:52:26;99696.72;;;16.19;100.00
14120;BME280;7138;49.246;9.100;2022-10-19T01:54:56;99696.75;;;16.16;100.00
14120;BME280;7138;49.246;9.100;2022-10-19T01:57:28;99691.47;;;16.21;100.00
14120;BME280;7138;49.246;9.100;2022-10-19T01:59:56;99681.03;;;16.21;100.00
14120;BME280;7138;49.246;9.100;2022-10-19T02:02:26;99686.22;;;16.27;100.00
14120;BME280;7138;49.246;9.100;2022-10-19T02:04:56;99673.13;;;16.31;100.00
14120;BME280;7138;49.246;9.100;2022-10-19T02:07:24;99667.00;;;16.32;100.00
14120;BME280;7138;49.246;9.100;2022-10-19T02:09:50;99673.16;;;16.27;100.00
14120;BME280;7138;49.246;9.100;2022-10-19T02:12:17;99668.84;;;16.24;100.00
14120;BME280;7138;49.246;9.100;2022-10-19T02:14:50;99658.41;;;16.24;100.00
14120;BME280;7138;49.246;9.100;2022-10-19T02:17:25;99660.09;;;16.28;100.00
14120;BME280;7138;49.246;9.100;2022-10-19T02:19:54;99650.53;;;16.27;100.00
14120;BME280;7138;49.246;9.100;2022-10-19T02:22:20;99651.38;;;16.31;100.00
14120;BME280;7138;49.246;9.100;2022-10-19T02:24:46;99654.88;;;16.30;100.00
14120;BME280;7138;49.246;9.100;2022-10-19T02:27:13;99654.03;;;16.28;100.00
14120;BME280;7138;49.246;9.100;2022-10-19T02:29:39;99649.69;;;16.25;100.00
14120;BME280;7138;49.246;9.100;2022-10-19T02:32:06;99646.19;;;16.28;100.00
14120;BME280;7138;49.246;9.100;2022-10-19T02:34:35;99646.16;;;16.31;100.00
14120;BME280;7138;49.246;9.100;2022-10-19T02:37:02;99648.78;;;16.31;100.00
14120;BME280;7138;49.246;9.100;2022-10-19T02:39:28;99654.00;;;16.29;100.00
14120;BME280;7138;49.246;9.100;2022-10-19T02:42:00;99651.31;;;16.35;100.00
14120;BME280;7138;49.246;9.100;2022-10-19T02:44:35;99639.19;;;16.30;100.00
14120;BME280;7138;49.246;9.100;2022-10-19T02:47:09;99641.88;;;16.25;100.00
14120;BME280;7138;49.246;9.100;2022-10-19T02:49:39;99643.56;;;16.26;100.00
14120;BME280;7138;49.246;9.100;2022-10-19T02:52:08;99649.66;;;16.28;100.00
14120;BME280;7138;49.246;9.100;2022-10-19T02:54:35;99640.06;;;16.30;100.00
14120;BME280;7138;49.246;9.100;2022-10-19T02:57:03;99628.78;;;16.27;100.00
14120;BME280;7138;49.246;9.100;2022-10-19T02:59:36;99633.97;;;16.31;100.00
14120;BME280;7138;49.246;9.100;2022-10-19T03:02:02;99634.81;;;16.38;100.00
14120;BME280;7138;49.246;9.100;2022-10-19T03:04:28;99631.31;;;16.36;100.00
14120;BME280;7138;49.246;9.100;2022-10-19T03:06:55;99623.50;;;16.37;100.00
14120;BME280;7138;49.246;9.100;2022-10-19T03:09:21;99628.72;;;16.37;100.00
14120;BME280;7138;49.246;9.100;2022-10-19T03:11:47;99630.41;;;16.38;100.00
14120;BME280;7138;49.246;9.100;2022-10-19T03:14:12;99628.66;;;16.42;100.00
14120;BME280;7138;49.246;9.100;2022-10-19T03:16:38;99630.38;;;16.45;100.00
14120;BME280;7138;49.246;9.100;2022-10-19T03:19:05;99626.88;;;16.46;100.00
14120;BME280;7138;49.246;9.100;2022-10-19T03:21:33;99623.38;;;16.48;100.00
14120;BME280;7138;49.246;9.100;2022-10-19T03:24:00;99621.63;;;16.50;100.00
14120;BME280;7138;49.246;9.100;2022-10-19T03:26:26;99613.81;;;16.46;100.00
14120;BME280;7138;49.246;9.100;2022-10-19T03:28:52;99616.50;;;16.41;100.00
14120;BME280;7138;49.246;9.100;2022-10-19T03:31:18;99633.03;;;16.38;100.00
14120;BME280;7138;49.246;9.100;2022-10-19T03:33:44;99624.34;;;16.36;100.00
14120;BME280;7138;49.246;9.100;2022-10-19T03:36:17;99631.25;;;16.44;100.00
14120;BME280;7138;49.246;9.100;2022-10-19T03:38:44;99624.28;;;16.42;100.00
14120;BME280;7138;49.246;9.100;2022-10-19T03:41:12;99627.81;;;16.38;100.00
14120;BME280;7138;49.246;9.100;2022-10-19T03:43:38;99630.41;;;16.38;100.00
14120;BME280;7138;49.246;9.100;2022-10-19T03:46:06;99629.59;;;16.33;100.00
14120;BME280;7138;49.246;9.100;2022-10-19T03:48:33;99637.47;;;16.30;100.00
14120;BME280;7138;49.246;9.100;2022-10-19T03:50:59;99631.38;;;16.31;100.00
14120;BME280;7138;49.246;9.100;2022-10-19T03:53:25;99623.53;;;16.30;100.00
14120;BME280;7138;49.246;9.100;2022-10-19T03:55:51;99633.13;;;16.26;100.00
14120;BME280;7138;49.246;9.100;2022-10-19T03:58:18;99627.13;;;16.18;100.00
14120;BME280;7138;49.246;9.100;2022-10-19T04:00:44;99636.75;;;16.13;100.00
14120;BME280;7138;49.246;9.100;2022-10-19T04:03:10;99629.81;;;16.09;100.00
14120;BME280;7138;49.246;9.100;2022-10-19T04:05:35;99626.34;;;16.06;100.00
14120;BME280;7138;49.246;9.100;2022-10-19T04:08:01;99629.81;;;16.09;100.00
14120;BME280;7138;49.246;9.100;2022-10-19T04:10:30;99619.44;;;16.00;100.00
14120;BME280;7138;49.246;9.100;2022-10-19T04:12:56;99630.72;;;16.02;100.00
14120;BME280;7138;49.246;9.100;2022-10-19T04:15:23;99631.59;;;16.04;100.00
14120;BME280;7138;49.246;9.100;2022-10-19T04:17:49;99628.09;;;16.05;100.00
14120;BME280;7138;49.246;9.100;2022-10-19T04:20:15;99639.44;;;16.04;100.00
14120;BME280;7138;49.246;9.100;2022-10-19T04:22:41;99632.50;;;16.02;100.00
14120;BME280;7138;49.246;9.100;2022-10-19T04:25:09;99634.25;;;15.98;100.00
14120;BME280;7138;49.246;9.100;2022-10-19T04:27:35;99632.50;;;16.02;100.00
14120;BME280;7138;49.246;9.100;2022-10-19T04:30:02;99633.31;;;16.05;100.00
14120;BME280;7138;49.246;9.100;2022-10-19T04:32:29;99636.84;;;16.01;100.00
14120;BME280;7138;49.246;9.100;2022-10-19T04:34:55;99628.94;;;16.09;100.00
14120;BME280;7138;49.246;9.100;2022-10-19T04:37:21;99634.19;;;16.06;100.00
14120;BME280;7138;49.246;9.100;2022-10-19T04:39:46;99635.06;;;16.06;100.00
14120;BME280;7138;49.246;9.100;2022-10-19T04:42:12;99635.91;;;16.05;100.00
14120;BME280;7138;49.246;9.100;2022-10-19T04:44:38;99635.06;;;16.03;100.00
14120;BME280;7138;49.246;9.100;2022-10-19T04:47:04;99645.53;;;16.00;100.00
14120;BME280;7138;49.246;9.100;2022-10-19T04:49:31;99644.69;;;15.97;100.00
14120;BME280;7138;49.246;9.100;2022-10-19T04:51:57;99646.41;;;16.01;100.00
14120;BME280;7138;49.246;9.100;2022-10-19T04:54:23;99640.28;;;16.03;100.00
14120;BME280;7138;49.246;9.100;2022-10-19T04:56:49;99648.13;;;16.00;100.00
14120;BME280;7138;49.246;9.100;2022-10-19T04:59:15;99639.44;;;16.00;100.00
14120;BME280;7138;49.246;9.100;2022-10-19T05:01:41;99643.78;;;16.01;100.00
14120;BME280;7138;49.246;9.100;2022-10-19T05:04:08;99642.91;;;16.03;100.00
14120;BME280;7138;49.246;9.100;2022-10-19T05:06:36;99643.75;;;16.02;100.00
14120;BME280;7138;49.246;9.100;2022-10-19T05:09:02;99640.28;;;16.06;100.00
14120;BME280;7138;49.246;9.100;2022-10-19T05:11:28;99635.91;;;16.08;100.00
14120;BME280;7138;49.246;9.100;2022-10-19T05:13:55;99641.13;;;16.10;100.00
14120;BME280;7138;49.246;9.100;2022-10-19T05:16:23;99619.38;;;16.09;100.00
14120;BME280;7138;49.246;9.100;2022-10-19T05:18:52;99631.47;;;16.19;100.00
14120;BME280;7138;49.246;9.100;2022-10-19T05:21:21;99631.50;;;16.16;100.00
14120;BME280;7138;49.246;9.100;2022-10-19T05:23:51;99628.88;;;16.15;100.00
14120;BME280;7138;49.246;9.100;2022-10-19T05:26:19;99621.97;;;16.12;100.00
14120;BME280;7138;49.246;9.100;2022-10-19T05:28:47;99615.03;;;16.10;100.00
14120;BME280;7138;49.246;9.100;2022-10-19T05:31:16;99612.38;;;16.11;100.00
14120;BME280;7138;49.246;9.100;2022-10-19T05:33:42;99613.22;;;16.15;100.00
14120;BME280;7138;49.246;9.100;2022-10-19T05:36:12;99605.41;;;16.16;100.00
14120;BME280;7138;49.246;9.100;2022-10-19T05:38:38;99607.16;;;16.13;100.00
14120;BME280;7138;49.246;9.100;2022-10-19T05:41:06;99610.69;;;16.10;100.00
14120;BME280;7138;49.246;9.100;2022-10-19T05:43:32;99604.63;;;16.02;100.00
14120;BME280;7138;49.246;9.100;2022-10-19T05:46:03;99605.50;;;16.04;100.00
14120;BME280;7138;49.246;9.100;2022-10-19T05:48:29;99603.81;;;15.97;100.00
14120;BME280;7138;49.246;9.100;2022-10-19T05:50:59;99613.34;;;16.00;100.00
14120;BME280;7138;49.246;9.100;2022-10-19T05:53:26;99607.25;;;16.02;100.00
14120;BME280;7138;49.246;9.100;2022-10-19T05:55:51;99610.69;;;16.06;100.00
14120;BME280;7138;49.246;9.100;2022-10-19T05:58:19;99593.41;;;15.94;100.00
14120;BME280;7138;49.246;9.100;2022-10-19T06:00:50;99614.19;;;16.08;100.00
14120;BME280;7138;49.246;9.100;2022-10-19T06:03:16;99613.34;;;16.01;100.00
14120;BME280;7138;49.246;9.100;2022-10-19T06:05:42;99612.44;;;16.05;100.00
14120;BME280;7138;49.246;9.100;2022-10-19T06:08:08;99608.97;;;16.06;100.00
14120;BME280;7138;49.246;9.100;2022-10-19T06:10:34;99609.81;;;16.08;100.00
14120;BME280;7138;49.246;9.100;2022-10-19T06:13:00;99609.81;;;16.08;100.00
14120;BME280;7138;49.246;9.100;2022-10-19T06:15:27;99614.19;;;16.06;100.00
14120;BME280;7138;49.246;9.100;2022-10-19T06:17:53;99624.59;;;16.09;100.00
14120;BME280;7138;49.246;9.100;2022-10-19T06:20:19;99616.72;;;16.15;100.00
14120;BME280;7138;49.246;9.100;2022-10-19T06:22:45;99626.28;;;16.15;100.00
14120;BME280;7138;49.246;9.100;2022-10-19T06:25:11;99621.91;;;16.18;100.00
14120;BME280;7138;49.246;9.100;2022-10-19T06:27:36;99616.69;;;16.20;100.00
14120;BME280;7138;49.246;9.100;2022-10-19T06:30:04;99626.19;;;16.24;100.00
14120;BME280;7138;49.246;9.100;2022-10-19T06:32:31;99624.47;;;16.24;100.00
14120;BME280;7138;49.246;9.100;2022-10-19T06:34:58;99627.03;;;16.27;100.00
14120;BME280;7138;49.246;9.100;2022-10-19T06:37:24;99634.03;;;16.25;100.00
14120;BME280;7138;49.246;9.100;2022-10-19T06:39:50;99629.72;;;16.18;100.00
14120;BME280;7138;49.246;9.100;2022-10-19T06:42:15;99634.97;;;16.15;100.00
14120;BME280;7138;49.246;9.100;2022-10-19T06:44:41;99631.50;;;16.15;100.00
14120;BME280;7138;49.246;9.100;2022-10-19T06:47:07;99632.41;;;16.11;100.00
14120;BME280;7138;49.246;9.100;2022-10-19T06:49:35;99639.34;;;16.13;100.00
14120;BME280;7138;49.246;9.100;2022-10-19T06:52:02;99641.09;;;16.13;100.00
14120;BME280;7138;49.246;9.100;2022-10-19T06:54:28;99629.72;;;16.18;100.00
14120;BME280;7138;49.246;9.100;2022-10-19T06:56:54;99638.44;;;16.19;100.00
14120;BME280;7138;49.246;9.100;2022-10-19T06:59:19;99631.47;;;16.18;100.00
14120;BME280;7138;49.246;9.100;2022-10-19T07:01:45;99629.75;;;16.20;100.00
14120;BME280;7138;49.246;9.100;2022-10-19T07:04:11;99634.09;;;16.18;100.00
14120;BME280;7138;49.246;9.100;2022-10-19T07:06:38;99636.72;;;16.16;100.00
14120;BME280;7138;49.246;9.100;2022-10-19T07:09:04;99639.31;;;16.18;100.00
14120;BME280;7138;49.246;9.100;2022-10-19T07:11:30;99632.44;;;16.08;100.00
14120;BME280;7138;49.246;9.100;2022-10-19T07:13:56;99625.59;;;15.95;100.00
14120;BME280;7138;49.246;9.100;2022-10-19T07:16:22;99645.50;;;16.05;100.00
14120;BME280;7138;49.246;9.100;2022-10-19T07:18:50;99648.97;;;16.02;100.00
14120;BME280;7138;49.246;9.100;2022-10-19T07:21:17;99656.84;;;15.99;100.00
14120;BME280;7138;49.246;9.100;2022-10-19T07:23:46;99661.22;;;15.96;100.00
14120;BME280;7138;49.246;9.100;2022-10-19T07:26:14;99667.34;;;15.90;100.00
14120;BME280;7138;49.246;9.100;2022-10-19T07:28:43;99659.53;;;15.89;100.00
14120;BME280;7138;49.246;9.100;2022-10-19T07:31:12;99661.28;;;15.85;100.00
14120;BME280;7138;49.246;9.100;2022-10-19T07:33:38;99655.25;;;15.75;100.00
14120;BME280;7138;49.246;9.100;2022-10-19T07:36:07;99660.47;;;15.77;100.00
14120;BME280;7138;49.246;9.100;2022-10-19T07:38:34;99662.19;;;15.78;100.00
14120;BME280;7138;49.246;9.100;2022-10-19T07:41:05;99662.19;;;15.79;100.00
14120;BME280;7138;49.246;9.100;2022-10-19T07:43:33;99660.47;;;15.80;100.00
14120;BME280;7138;49.246;9.100;2022-10-19T07:46:02;99658.72;;;15.83;100.00
14120;BME280;7138;49.246;9.100;2022-10-19T07:48:28;99660.41;;;15.88;100.00
14120;BME280;7138;49.246;9.100;2022-10-19T07:50:54;99669.13;;;15.87;100.00
14120;BME280;7138;49.246;9.100;2022-10-19T07:53:21;99662.22;;;15.73;100.00
14120;BME280;7138;49.246;9.100;2022-10-19T07:55:47;99671.75;;;15.83;100.00
14120;BME280;7138;49.246;9.100;2022-10-19T07:58:14;99669.13;;;15.87;100.00
14120;BME280;7138;49.246;9.100;2022-10-19T08:00:40;99670.84;;;15.88;100.00
14120;BME280;7138;49.246;9.100;2022-10-19T08:03:05;99670.84;;;15.88;100.00
14120;BME280;7138;49.246;9.100;2022-10-19T08:05:31;99669.97;;;15.87;100.00
14120;BME280;7138;49.246;9.100;2022-10-19T08:07:57;99671.69;;;15.88;100.00
14120;BME280;7138;49.246;9.100;2022-10-19T08:10:23;99672.53;;;15.93;100.00
14120;BME280;7138;49.246;9.100;2022-10-19T08:12:49;99670.78;;;15.94;100.00
14120;BME280;7138;49.246;9.100;2022-10-19T08:15:16;99674.25;;;16.02;100.00
14120;BME280;7138;49.246;9.100;2022-10-19T08:17:42;99673.31;;;16.10;100.00
14120;BME280;7138;49.246;9.100;2022-10-19T08:20:09;99665.44;;;16.13;100.00
14120;BME280;7138;49.246;9.100;2022-10-19T08:22:35;99668.00;;;16.19;100.00
14120;BME280;7138;49.246;9.100;2022-10-19T08:25:01;99664.56;;;16.11;100.00
14120;BME280;7138;49.246;9.100;2022-10-19T08:27:27;99664.56;;;16.16;100.00
14120;BME280;7138;49.246;9.100;2022-10-19T08:29:53;99664.47;;;16.23;100.00
14120;BME280;7138;49.246;9.100;2022-10-19T08:32:21;99669.69;;;16.23;100.00
14120;BME280;7138;49.246;9.100;2022-10-19T08:34:46;99666.19;;;16.27;100.00
14120;BME280;7138;49.246;9.100;2022-10-19T08:37:12;99668.75;;;16.33;100.00
14120;BME280;7138;49.246;9.100;2022-10-19T08:39:38;99671.38;;;16.33;100.00
14120;BME280;7138;49.246;9.100;2022-10-19T08:42:12;99671.38;;;16.35;100.00
14120;BME280;7138;49.246;9.100;2022-10-19T08:45:02;99668.72;;;16.41;100.00
14120;BME280;7138;49.246;9.100;2022-10-19T08:47:58;99670.41;;;16.45;100.00
14120;BME280;7138;49.246;9.100;2022-10-19T08:50:28;99665.19;;;16.44;100.00
14120;BME280;7138;49.246;9.100;2022-10-19T08:53:02;99662.50;;;16.51;100.00
14120;BME280;7138;49.246;9.100;2022-10-19T08:55:40;99658.19;;;16.50;100.00
14120;BME280;7138;49.246;9.100;2022-10-19T08:58:28;99662.50;;;16.53;100.00
14120;BME280;7138;49.246;9.100;2022-10-19T09:01:04;99659.91;;;16.54;100.00
14120;BME280;7138;49.246;9.100;2022-10-19T09:03:40;99664.19;;;16.60;100.00
14120;BME280;7138;49.246;9.100;2022-10-19T09:06:19;99663.28;;;16.68;100.00
14120;BME280;7138;49.246;9.100;2022-10-19T09:08:49;99653.72;;;16.63;100.00
14120;BME280;7138;49.246;9.100;2022-10-19T09:11:21;99664.09;;;16.70;100.00
14120;BME280;7138;49.246;9.100;2022-10-19T09:13:48;99655.38;;;16.73;100.00
14120;BME280;7138;49.246;9.100;2022-10-19T09:16:18;99656.19;;;16.78;100.00
14120;BME280;7138;49.246;9.100;2022-10-19T09:18:47;99654.41;;;16.81;100.00
14120;BME280;7138;49.246;9.100;2022-10-19T09:21:17;99651.72;;;16.87;100.00
14120;BME280;7138;49.246;9.100;2022-10-19T09:23:54;99657.81;;;16.89;100.00
14120;BME280;7138;49.246;9.100;2022-10-19T09:26:28;99642.09;;;16.94;100.00
14120;BME280;7138;49.246;9.100;2022-10-19T09:29:02;99644.63;;;17.00;100.00
14120;BME280;7138;49.246;9.100;2022-10-19T09:31:32;99649.81;;;17.03;100.00
14120;BME280;7138;49.246;9.100;2022-10-19T09:34:04;99646.28;;;17.07;100.00
14120;BME280;7138;49.246;9.100;2022-10-19T09:36:37;99647.09;;;17.12;100.00
14120;BME280;7138;49.246;9.100;2022-10-19T09:39:08;99648.78;;;17.18;100.00
14120;BME280;7138;49.246;9.100;2022-10-19T09:41:35;99648.78;;;17.19;100.00
14120;BME280;7138;49.246;9.100;2022-10-19T09:44:01;99648.69;;;17.25;100.00
14120;BME280;7138;49.246;9.100;2022-10-19T09:46:44;99648.59;;;17.34;100.00
14120;BME280;7138;49.246;9.100;2022-10-19T09:49:18;99652.91;;;17.38;100.00
14120;BME280;7138;49.246;9.100;2022-10-19T09:52:03;99637.22;;;17.38;100.00
14120;BME280;7138;49.246;9.100;2022-10-19T09:54:35;99645.94;;;17.37;100.00
14120;BME280;7138;49.246;9.100;2022-10-19T09:57:03;99649.38;;;17.39;100.00
14120;BME280;7138;49.246;9.100;2022-10-19T09:59:32;99652.81;;;17.43;100.00
14120;BME280;7138;49.246;9.100;2022-10-19T10:02:12;99646.75;;;17.41;100.00
14120;BME280;7138;49.246;9.100;2022-10-19T10:04:40;99652.00;;;17.39;100.00
14120;BME280;7138;49.246;9.100;2022-10-19T10:07:14;99631.97;;;17.38;100.00
14120;BME280;7138;49.246;9.100;2022-10-19T10:09:42;99643.97;;;17.52;100.00
14120;BME280;7138;49.246;9.100;2022-10-19T10:12:12;99636.94;;;17.60;100.00
14120;BME280;7138;49.246;9.100;2022-10-19T10:14:39;99635.22;;;17.59;100.00
14120;BME280;7138;49.246;9.100;2022-10-19T10:17:13;99629.09;;;17.60;100.00
14120;BME280;7138;49.246;9.100;2022-10-19T10:20:04;99624.72;;;17.62;100.00
14120;BME280;7138;49.246;9.100;2022-10-19T10:22:33;99617.81;;;17.56;100.00
14120;BME280;7138;49.246;9.100;2022-10-19T10:25:01;99617.78;;;17.58;100.00
14120;BME280;7138;49.246;9.100;2022-10-19T10:27:33;99624.72;;;17.62;100.00
14120;BME280;7138;49.246;9.100;2022-10-19T10:30:06;99626.38;;;17.67;100.00
14120;BME280;7138;49.246;9.100;2022-10-19T10:32:37;99626.31;;;17.70;100.00
14120;BME280;7138;49.246;9.100;2022-10-19T10:35:18;99615.81;;;17.75;100.00
14120;BME280;7138;49.246;9.100;2022-10-19T10:37:47;99622.66;;;17.82;100.00
14120;BME280;7138;49.246;9.100;2022-10-19T10:40:22;99612.97;;;17.90;100.00
14120;BME280;7138;49.246;9.100;2022-10-19T10:42:50;99616.41;;;17.92;100.00
14120;BME280;7138;49.246;9.100;2022-10-19T10:45:22;99619.91;;;17.91;100.00
14120;BME280;7138;49.246;9.100;2022-10-19T10:47:49;99617.28;;;17.91;100.00
14120;BME280;7138;49.246;9.100;2022-10-19T10:50:21;99619.78;;;17.98;100.00
14120;BME280;7138;49.246;9.100;2022-10-19T10:53:00;99617.97;;;18.03;100.00
14120;BME280;7138;49.246;9.100;2022-10-19T10:55:28;99620.69;;;17.97;100.00
14120;BME280;7138;49.246;9.100;2022-10-19T10:58:08;99615.44;;;17.99;100.00
14120;BME280;7138;49.246;9.100;2022-10-19T11:00:37;99608.50;;;17.95;100.00
14120;BME280;7138;49.246;9.100;2022-10-19T11:03:14;99605.09;;;17.90;100.00
14120;BME280;7138;49.246;9.100;2022-10-19T11:05:46;99604.09;;;17.98;100.00
14120;BME280;7138;49.246;9.100;2022-10-19T11:08:22;99595.38;;;17.98;100.00
14120;BME280;7138;49.246;9.100;2022-10-19T11:10:56;99594.34;;;18.08;100.00
14120;BME280;7138;49.246;9.100;2022-10-19T11:13:29;99595.94;;;18.15;100.00
14120;BME280;7138;49.246;9.100;2022-10-19T11:16:04;99592.44;;;18.18;100.00
14120;BME280;7138;49.246;9.100;2022-10-19T11:18:40;99587.00;;;18.28;100.00
14120;BME280;7138;49.246;9.100;2022-10-19T11:21:14;99588.59;;;18.37;99.01
14120;BME280;7138;49.246;9.100;2022-10-19T11:24:00;99579.75;;;18.44;98.62
14120;BME280;7138;49.246;9.100;2022-10-19T11:26:50;99571.84;;;18.47;97.08
14120;BME280;7138;49.246;9.100;2022-10-19T11:29:39;99564.84;;;18.47;98.06
14120;BME280;7138;49.246;9.100;2022-10-19T11:32:19;99562.41;;;18.38;96.97
14120;BME280;7138;49.246;9.100;2022-10-19T11:35:05;99554.59;;;18.34;97.60
14120;BME280;7138;49.246;9.100;2022-10-19T11:37:45;99559.78;;;18.37;97.64
14120;BME280;7138;49.246;9.100;2022-10-19T11:40:23;99557.22;;;18.35;97.06
14120;BME280;7138;49.246;9.100;2022-10-19T11:42:57;99547.50;;;18.42;97.36
14120;BME280;7138;49.246;9.100;2022-10-19T11:45:40;99549.13;;;18.49;97.59
14120;BME280;7138;49.246;9.100;2022-10-19T11:48:50;99531.56;;;18.54;98.18
14120;BME280;7138;49.246;9.100;2022-10-19T11:51:27;99536.88;;;18.51;96.32
14120;BME280;7138;49.246;9.100;2022-10-19T11:54:18;99527.97;;;18.58;96.79
14120;BME280;7138;49.246;9.100;2022-10-19T11:56:53;99525.41;;;18.57;95.71
14120;BME280;7138;49.246;9.100;2022-10-19T11:59:33;99518.06;;;18.74;96.27
14120;BME280;7138;49.246;9.100;2022-10-19T12:05:20;99493.69;;;18.70;96.96
14120;BME280;7138;49.246;9.100;2022-10-19T12:08:04;99512.44;;;18.92;97.20
14120;BME280;7138;49.246;9.100;2022-10-19T12:10:46;99510.56;;;18.98;95.83
14120;BME280;7138;49.246;9.100;2022-10-19T12:13:24;99499.88;;;19.07;95.49
14120;BME280;7138;49.246;9.100;2022-10-19T12:15:54;99499.66;;;19.17;96.55
14120;BME280;7138;49.246;9.100;2022-10-19T12:18:31;99501.88;;;19.33;96.74
14120;BME280;7138;49.246;9.100;2022-10-19T12:21:06;99488.56;;;19.45;95.89
14120;BME280;7138;49.246;9.100;2022-10-19T12:23:37;99489.97;;;19.58;95.09
14120;BME280;7138;49.246;9.100;2022-10-19T12:26:09;99484.41;;;19.71;94.94
14120;BME280;7138;49.246;9.100;2022-10-19T12:28:39;99477.06;;;19.85;95.78
14120;BME280;7138;49.246;9.100;2022-10-19T12:31:09;99482.13;;;19.92;93.97
14120;BME280;7138;49.246;9.100;2022-10-19T12:33:45;99486.41;;;19.96;93.21
14120;BME280;7138;49.246;9.100;2022-10-19T12:36:25;99476.00;;;19.92;93.85
14120;BME280;7138;49.246;9.100;2022-10-19T12:39:06;99475.84;;;19.98;92.73
14120;BME280;7138;49.246;9.100;2022-10-19T12:41:44;99478.38;;;20.01;93.33
14120;BME280;7138;49.246;9.100;2022-10-19T12:44:37;99476.91;;;19.91;91.71
14120;BME280;7138;49.246;9.100;2022-10-19T12:47:11;99464.63;;;19.91;92.80
14120;BME280;7138;49.246;9.100;2022-10-19T12:49:48;99468.13;;;19.92;92.36
14120;BME280;7138;49.246;9.100;2022-10-19T12:52:33;99469.06;;;19.89;91.08
14120;BME280;7138;49.246;9.100;2022-10-19T12:55:18;99453.56;;;19.80;91.78
14120;BME280;7138;49.246;9.100;2022-10-19T12:57:59;99452.66;;;19.81;93.17
14120;BME280;7138;49.246;9.100;2022-10-19T13:00:30;99449.09;;;19.84;92.88
14120;BME280;7138;49.246;9.100;2022-10-19T13:03:00;99446.56;;;19.79;93.39
14120;BME280;7138;49.246;9.100;2022-10-19T13:05:29;99437.72;;;19.83;92.45
14120;BME280;7138;49.246;9.100;2022-10-19T13:07:57;99434.22;;;19.84;92.38
14120;BME280;7138;49.246;9.100;2022-10-19T13:10:27;99438.63;;;19.82;92.90
14120;BME280;7138;49.246;9.100;2022-10-19T13:12:55;99434.13;;;19.87;93.81
14120;BME280;7138;49.246;9.100;2022-10-19T13:15:54;99423.72;;;19.83;92.79
14120;BME280;7138;49.246;9.100;2022-10-19T13:19:18;99421.94;;;19.85;93.36
14120;BME280;7138;49.246;9.100;2022-10-19T13:21:52;99422.75;;;19.87;92.10
14120;BME280;7138;49.246;9.100;2022-10-19T13:24:35;99424.53;;;19.86;91.36
14120;BME280;7138;49.246;9.100;2022-10-19T13:27:27;99422.69;;;19.88;91.57